createdAt,value
2019-04-03T12:14:22.874Z,0
2019-04-03T12:15:37.858Z,2.4
2019-04-03T12:16:50.372Z,3
2019-04-03T12:18:03.888Z,2.8
2019-04-03T12:19:16.629Z,3
2019-04-03T12:20:34.923Z,2.7
2019-04-03T12:21:50.773Z,3.1
2019-04-03T12:23:02.715Z,2.6
2019-04-03T12:24:23.319Z,2.8
2019-04-03T12:25:38.955Z,2.7
2019-04-03T12:26:51.486Z,3
2019-04-03T12:28:06.761Z,2.8
2019-04-03T12:29:21.344Z,2.9
2019-04-03T12:30:34.304Z,2.9
2019-04-03T12:31:58.032Z,2.8
2019-04-03T12:33:12.536Z,2.6
2019-04-03T12:34:26.239Z,2.7
2019-04-03T12:35:41.893Z,2.7
2019-04-03T12:36:53.772Z,2.4
2019-04-03T12:38:07.947Z,2.4
2019-04-03T12:39:21.355Z,2.6
2019-04-03T12:40:36.057Z,2.5
2019-04-03T12:41:49.832Z,2.6
2019-04-03T12:43:03.671Z,2.1
2019-04-03T12:44:18.898Z,2.2
2019-04-03T12:45:31.435Z,2.2
2019-04-03T12:46:45.069Z,2.4
2019-04-03T12:47:58.944Z,2.3
2019-04-03T12:49:12.796Z,2.4
2019-04-03T12:50:27.518Z,2.2
2019-04-03T12:51:40.271Z,2.3
2019-04-03T12:52:54.029Z,2.1
2019-04-03T12:54:07.839Z,2.3
2019-04-03T12:55:22.916Z,2.2
2019-04-03T12:56:36.315Z,2
2019-04-03T12:57:50.485Z,2.3
2019-04-03T12:59:03.872Z,2.1
2019-04-03T13:00:18.635Z,2
2019-04-03T13:01:32.364Z,2.2
2019-04-03T13:02:46.142Z,2
2019-04-03T13:04:00.870Z,2.6
2019-04-03T13:05:14.714Z,1.9
2019-04-03T13:06:28.514Z,2.3
2019-04-03T13:07:44.052Z,2.5
2019-04-03T13:08:57.129Z,2.6
2019-04-03T13:10:11.042Z,2.7
2019-04-03T13:11:24.603Z,2.4
2019-04-03T13:12:38.400Z,2.3
2019-04-03T13:13:52.539Z,2.5
2019-04-03T13:15:06.982Z,2.5
2019-04-03T13:16:21.896Z,2.5
2019-04-03T13:17:34.518Z,2.3
2019-04-03T13:18:48.519Z,2.4
2019-04-03T13:20:05.510Z,2.3
2019-04-03T13:21:15.669Z,2.8
2019-04-03T13:22:29.905Z,2.2
2019-04-03T13:23:45.706Z,2.1
2019-04-03T13:24:56.910Z,2.2
2019-04-03T13:26:10.706Z,2.2
2019-04-03T13:27:24.556Z,2.3
2019-04-03T13:28:40.350Z,2
2019-04-03T13:29:52.953Z,2.4
2019-04-03T13:31:06.673Z,2.2
2019-04-03T13:32:21.940Z,2.2
2019-04-03T13:33:34.625Z,2.2
2019-04-03T13:34:48.822Z,2.1
2019-04-03T13:36:02.551Z,1.8
2019-04-03T13:37:16.519Z,2.2
2019-04-03T13:38:31.174Z,2
2019-04-03T13:39:45.120Z,2.1
2019-04-03T13:40:58.453Z,1.9
2019-04-03T13:42:14.035Z,2
2019-04-03T13:43:26.903Z,2.1
2019-04-03T13:44:40.744Z,1.9
2019-04-03T13:45:54.380Z,1.8
2019-04-03T13:47:09.088Z,2.2
2019-04-03T13:48:21.837Z,1.9
2019-04-03T13:49:35.551Z,2.1
2019-04-03T13:50:49.272Z,2
2019-04-03T13:52:08.207Z,2.2
2019-04-03T13:53:20.403Z,1.8
2019-04-03T13:54:33.715Z,2.2
2019-04-03T13:55:47.072Z,1.8
2019-04-03T13:57:01.038Z,2.2
2019-04-03T13:58:14.529Z,1.6
2019-04-03T13:59:29.270Z,1.9
2019-04-03T14:00:43.136Z,1.8
2019-04-03T14:01:57.793Z,2.2
2019-04-03T14:03:11.682Z,1.9
2019-04-03T14:04:26.825Z,1.9
2019-04-03T14:05:42.539Z,2.1
2019-04-03T14:06:54.003Z,1.8
2019-04-03T14:08:07.951Z,2.2
2019-04-03T14:09:22.812Z,2.2
2019-04-03T14:10:36.257Z,1.9
2019-04-03T14:11:50.191Z,1.7
2019-04-03T14:13:03.733Z,1.8
2019-04-03T14:14:18.869Z,2.1
2019-04-03T14:15:32.441Z,2.1
2019-04-03T14:16:46.053Z,2.1
2019-04-03T14:17:59.752Z,1.7
2019-04-03T14:19:13.806Z,1.8
2019-04-03T14:20:27.552Z,2.1
2019-04-03T14:21:41.067Z,3
2019-04-03T14:22:55.398Z,1.7
2019-04-03T14:24:09.209Z,2
2019-04-03T14:25:23.810Z,2.1
2019-04-03T14:26:37.577Z,2.1
2019-04-03T14:27:52.196Z,2
2019-04-03T14:29:07.036Z,2.3
2019-04-03T14:30:19.337Z,2.3
2019-04-03T14:31:36.436Z,2
2019-04-03T14:32:47.788Z,2.1
2019-04-03T14:34:02.853Z,2
2019-04-03T14:35:41.829Z,2.2
2019-04-03T14:36:31.098Z,2.1
2019-04-03T14:37:44.759Z,2
2019-04-03T14:38:58.664Z,2.2
2019-04-03T14:40:13.618Z,1.8
2019-04-03T14:41:27.289Z,2
2019-04-03T14:42:40.927Z,1.7
2019-04-03T14:43:54.655Z,1.5
2019-04-03T14:45:12.841Z,1.9
2019-04-03T14:46:24.129Z,2
2019-04-03T14:47:37.897Z,1.7
2019-04-03T14:48:51.781Z,1.9
2019-04-03T14:50:07.074Z,1.6
2019-04-03T14:51:20.469Z,2
2019-04-03T14:52:34.127Z,1.7
2019-04-03T14:53:48.220Z,1.9
2019-04-03T14:55:16.045Z,1.9
2019-04-03T14:56:17.368Z,1.7
2019-04-03T14:57:31.350Z,2.3
2019-04-03T14:58:44.917Z,2.2
2019-04-03T15:00:00.360Z,1.8
2019-04-03T15:01:13.516Z,1.9
2019-04-03T15:02:28.287Z,2.3
2019-04-03T15:03:42.416Z,2.1
2019-04-03T15:04:55.847Z,2.2
2019-04-03T15:06:09.627Z,1.9
2019-04-03T15:07:24.364Z,1.9
2019-04-03T15:08:38.332Z,1.9
2019-04-03T15:09:52.169Z,1.9
2019-04-03T15:11:06.760Z,2.3
2019-04-03T15:12:20.523Z,2
2019-04-03T15:13:34.347Z,2.2
2019-04-03T15:14:48.223Z,2.1
2019-04-03T15:16:03.206Z,2.1
2019-04-03T15:17:16.727Z,2.3
2019-04-03T15:18:30.537Z,2.3
2019-04-03T15:19:45.243Z,2.1
2019-04-03T15:20:58.132Z,1.9
2019-04-03T15:22:12.109Z,2.1
2019-04-03T15:23:25.706Z,1.8
2019-04-03T15:24:42.221Z,2
2019-04-03T15:25:53.431Z,1.8
2019-04-03T15:27:06.976Z,1.7
2019-04-03T15:28:20.801Z,2.1
2019-04-03T15:29:36.858Z,2.4
2019-04-03T15:30:49.395Z,2.3
2019-04-03T15:32:03.145Z,2.4
2019-04-03T15:33:17.076Z,2.1
2019-04-03T15:34:31.873Z,2.1
2019-04-03T15:35:45.857Z,2
2019-04-03T15:36:59.305Z,1.8
2019-04-03T15:38:14.337Z,1.9
2019-04-03T15:39:27.992Z,1.7
2019-04-03T15:40:41.881Z,1.9
2019-04-03T15:41:55.663Z,2
2019-04-03T15:43:11.203Z,2
2019-04-03T15:44:26.941Z,2
2019-04-03T15:45:38.014Z,2.1
2019-04-03T15:46:51.872Z,2.5
2019-04-03T15:48:05.893Z,2.4
2019-04-03T15:49:19.637Z,2.2
2019-04-03T15:50:37.496Z,2.2
2019-04-03T15:51:47.697Z,2.3
2019-04-03T15:53:01.475Z,2.5
2019-04-03T15:54:15.686Z,2.5
2019-04-03T15:55:28.932Z,2.5
2019-04-03T15:56:44.773Z,2.2
2019-04-03T15:57:57.776Z,2.6
2019-04-03T15:59:11.582Z,2.4
2019-04-03T16:00:25.075Z,2.5
2019-04-03T16:01:39.434Z,2.8
2019-04-03T16:02:52.423Z,2.7
2019-04-03T16:04:06.017Z,2.7
2019-04-03T16:05:20.131Z,2.9
2019-04-03T16:06:35.889Z,2.4
2019-04-03T16:07:47.320Z,2.9
2019-04-03T16:09:01.131Z,2.5
2019-04-03T16:10:14.660Z,2.8
2019-04-03T16:11:30.474Z,2.8
2019-04-03T16:12:43.871Z,2.8
2019-04-03T16:13:57.036Z,2.7
2019-04-03T16:15:10.607Z,3
2019-04-03T16:16:25.796Z,2.8
2019-04-03T16:17:39.658Z,2.7
2019-04-03T16:18:52.667Z,2.6
2019-04-03T16:20:06.405Z,2.5
2019-04-03T16:21:22.310Z,2.3
2019-04-03T16:22:33.884Z,2.4
2019-04-03T16:23:48.066Z,2.4
2019-04-03T16:25:01.382Z,2.4
2019-04-03T16:26:15.131Z,2.6
2019-04-03T16:27:30.179Z,2.7
2019-04-03T16:28:44.172Z,2.6
2019-04-03T16:29:57.381Z,2.3
2019-04-03T16:31:11.543Z,2.3
2019-04-03T16:32:26.839Z,2.1
2019-04-03T16:33:38.893Z,2.3
2019-04-03T16:34:52.412Z,2
2019-04-03T16:36:06.876Z,2.2
2019-04-03T16:37:21.349Z,2.1
2019-04-03T16:38:35.835Z,2.1
2019-04-03T16:39:48.074Z,2.1
2019-04-03T16:41:01.404Z,2.4
2019-04-03T16:42:15.939Z,2.5
2019-04-03T16:43:28.839Z,2.4
2019-04-03T16:44:42.921Z,2.3
2019-04-03T16:45:56.299Z,2.2
2019-04-03T16:47:10.597Z,2.5
2019-04-03T16:48:23.991Z,2.4
2019-04-03T16:49:37.978Z,2.4
2019-04-03T16:50:51.318Z,2
2019-04-03T16:52:05.736Z,1.8
2019-04-03T16:53:19.987Z,2.1
2019-04-03T16:54:33.516Z,2.3
2019-04-03T16:55:46.649Z,2.1
2019-04-03T16:57:00.426Z,2.3
2019-04-03T16:58:13.650Z,2.2
2019-04-03T16:59:27.880Z,2.3
2019-04-03T17:00:42.641Z,2.1
2019-04-03T17:01:54.925Z,2.6
2019-04-03T17:03:08.696Z,2.6
2019-04-03T17:04:25.987Z,2.7
2019-04-03T17:05:37.175Z,2.7
2019-04-03T17:06:52.219Z,2.8
2019-04-03T17:08:05.641Z,2.7
2019-04-03T17:09:19.628Z,2.3
2019-04-03T17:10:33.108Z,2.9
2019-04-03T17:11:48.804Z,2.7
2019-04-03T17:13:01.563Z,2.4
2019-04-03T17:14:15.304Z,2.4
2019-04-03T17:15:29.062Z,2.4
2019-04-03T17:16:45.635Z,2.1
2019-04-03T17:17:57.501Z,2.6
2019-04-03T17:19:11.230Z,2.6
2019-04-03T17:20:25.918Z,2.5
2019-04-03T17:21:40.214Z,2.4
2019-04-03T17:22:53.543Z,2.7
2019-04-03T17:24:07.293Z,2.7
2019-04-03T17:25:21.024Z,3
2019-04-03T17:26:47.699Z,3.6
2019-04-03T17:27:56.344Z,2.9
2019-04-03T17:29:06.030Z,3.1
2019-04-03T17:30:19.429Z,2.9
2019-04-03T17:31:32.911Z,3
2019-04-03T17:32:46.272Z,3
2019-04-03T17:33:59.958Z,3.1
2019-04-03T17:35:15.269Z,3.3
2019-04-03T17:36:28.394Z,2.9
2019-04-03T17:37:42.313Z,2.7
2019-04-03T17:38:56.382Z,2.4
2019-04-03T17:40:10.601Z,2.8
2019-04-03T17:41:24.321Z,2.7
2019-04-03T17:42:39.992Z,3
2019-04-03T17:43:52.757Z,3
2019-04-03T17:45:06.510Z,3.2
2019-04-03T17:46:20.222Z,3.4
2019-04-03T17:47:33.992Z,3.2
2019-04-03T17:48:47.725Z,3.4
2019-04-03T17:50:01.444Z,3.4
2019-04-03T17:51:15.172Z,3.3
2019-04-03T17:52:28.942Z,2.8
2019-04-03T17:53:43.664Z,3.1
2019-04-03T17:54:57.369Z,3.5
2019-04-03T17:56:12.906Z,3.1
2019-04-03T17:57:24.804Z,3.1
2019-04-03T17:58:38.553Z,3.1
2019-04-03T17:59:52.272Z,2.7
2019-04-03T18:01:05.997Z,2.4
2019-04-03T18:02:19.741Z,2.2
2019-04-03T18:03:34.464Z,2.1
2019-04-03T18:04:48.829Z,2
2019-04-03T18:06:01.891Z,2.2
2019-04-03T18:07:15.617Z,2.3
2019-04-03T18:08:29.359Z,2.2
2019-04-03T18:09:44.247Z,2.3
2019-04-03T18:10:58.096Z,2.3
2019-04-03T18:12:11.849Z,2.2
2019-04-03T18:13:26.574Z,2.2
2019-04-03T18:14:40.356Z,2
2019-04-03T18:15:54.099Z,2.3
2019-04-03T18:17:07.833Z,2
2019-04-03T18:18:21.580Z,2.3
2019-04-03T18:19:37.556Z,2.1
2019-04-03T18:20:49.997Z,2.2
2019-04-03T18:22:03.766Z,2.3
2019-04-03T18:23:17.508Z,2.9
2019-04-03T18:24:31.225Z,2.5
2019-04-03T18:25:44.973Z,2.4
2019-04-03T18:26:58.759Z,2.7
2019-04-03T18:28:12.501Z,2.8
2019-04-03T18:29:26.212Z,2.7
2019-04-03T18:30:42.080Z,2.5
2019-04-03T18:31:53.664Z,2.3
2019-04-03T18:33:07.419Z,2.6
2019-04-03T18:34:21.135Z,2.3
2019-04-03T18:35:34.864Z,2.6
2019-04-03T18:36:48.589Z,2.5
2019-04-03T18:38:02.375Z,2.3
2019-04-03T18:39:17.095Z,2.8
2019-04-03T18:40:30.821Z,2.9
2019-04-03T18:41:45.812Z,2.9
2019-04-03T18:42:58.264Z,3.2
2019-04-03T18:44:21.488Z,3.3
2019-04-03T18:45:26.731Z,3.1
2019-04-03T18:46:40.445Z,3.3
2019-04-03T18:47:54.154Z,3.3
2019-04-03T18:49:07.907Z,3.4
2019-04-03T18:50:21.745Z,3.6
2019-04-03T18:51:36.719Z,3.4
2019-04-03T18:52:49.168Z,3.7
2019-04-03T18:54:02.988Z,3.3
2019-04-03T18:55:16.740Z,3.8
2019-04-03T18:56:32.003Z,3.2
2019-04-03T18:57:44.323Z,3.8
2019-04-03T18:58:59.044Z,3.9
2019-04-03T19:00:12.826Z,3.5
2019-04-03T19:01:26.593Z,3.7
2019-04-03T19:02:41.302Z,4
2019-04-03T19:03:55.043Z,4
2019-04-03T19:05:10.186Z,4.1
2019-04-03T19:06:23.518Z,4.1
2019-04-03T19:07:37.262Z,4.3
2019-04-03T19:08:51.017Z,4.4
2019-04-03T19:10:07.176Z,4.6
2019-04-03T19:11:18.412Z,4.4
2019-04-03T19:12:35.704Z,4.5
2019-04-03T19:13:49.217Z,4.4
2019-04-03T19:15:02.409Z,4.5
2019-04-03T19:16:19.634Z,4.2
2019-04-03T19:17:29.012Z,4.8
2019-04-03T19:18:42.812Z,4.1
2019-04-03T19:20:09.623Z,4.5
2019-04-03T19:21:23.951Z,4.3
2019-04-03T19:22:26.900Z,4.5
2019-04-03T19:23:49.365Z,4
2019-04-03T19:24:58.454Z,4.3
2019-04-03T19:26:09.061Z,4.6
2019-04-03T19:27:22.787Z,4
2019-04-03T19:28:36.500Z,3.8
2019-04-03T19:29:50.297Z,3.7
2019-04-03T19:31:04.033Z,3.8
2019-04-03T19:32:18.789Z,3.6
2019-04-03T19:33:32.486Z,3.7
2019-04-03T19:34:46.293Z,3.9
2019-04-03T19:36:00.980Z,3.3
2019-04-03T19:37:14.716Z,3.6
2019-04-03T19:38:28.482Z,3.6
2019-04-03T19:39:43.200Z,3.5
2019-04-03T19:40:56.925Z,3.2
2019-04-03T19:42:13.143Z,3.4
2019-04-03T19:43:24.369Z,3.7
2019-04-03T19:44:38.104Z,3.6
2019-04-03T19:45:52.377Z,3.3
2019-04-03T19:47:05.578Z,3.3
2019-04-03T19:48:19.329Z,3.4
2019-04-03T19:49:34.058Z,3.2
2019-04-03T19:50:48.868Z,3.2
2019-04-03T19:52:02.597Z,3
2019-04-03T19:53:17.377Z,3.4
2019-04-03T19:54:31.130Z,3.3
2019-04-03T19:55:44.850Z,3.1
2019-04-03T19:57:00.737Z,3.3
2019-04-03T19:58:12.338Z,3.4
2019-04-03T19:59:26.075Z,3.2
2019-04-03T20:00:40.804Z,3.1
2019-04-03T20:01:54.516Z,3.5
2019-04-03T20:03:08.249Z,3.4
2019-04-03T20:04:22.960Z,3.5
2019-04-03T20:05:36.721Z,3.5
2019-04-03T20:06:52.881Z,3.3
2019-04-03T20:08:05.210Z,3.7
2019-04-03T20:09:18.943Z,3.7
2019-04-03T20:10:33.762Z,3.9
2019-04-03T20:11:46.382Z,3.6
2019-04-03T20:13:01.132Z,3.8
2019-04-03T20:14:14.872Z,3.6
2019-04-03T20:15:28.587Z,3.8
2019-04-03T20:16:42.325Z,3.3
2019-04-03T20:17:56.066Z,3.7
2019-04-03T20:19:09.791Z,4
2019-04-03T20:20:23.536Z,4.2
2019-04-03T20:21:38.279Z,4.1
2019-04-03T20:22:51.987Z,3.9
2019-04-03T20:24:05.723Z,3.6
2019-04-03T20:25:20.443Z,4
2019-04-03T20:26:34.187Z,4.1
2019-04-03T20:27:51.229Z,3.5
2019-04-03T20:29:02.202Z,4.1
2019-04-03T20:30:15.387Z,4.1
2019-04-03T20:31:29.125Z,3.7
2019-04-03T20:32:43.838Z,4.2
2019-04-03T20:33:57.575Z,4.2
2019-04-03T20:35:11.327Z,4.5
2019-04-03T20:36:26.039Z,4
2019-04-03T20:37:39.762Z,4.2
2019-04-03T20:38:55.928Z,4.1
2019-04-03T20:40:08.267Z,4.2
2019-04-03T20:41:22.003Z,4.6
2019-04-03T20:42:35.743Z,4.1
2019-04-03T20:43:50.441Z,4.4
2019-04-03T20:45:04.204Z,4.3
2019-04-03T20:46:17.942Z,4.6
2019-04-03T20:47:32.662Z,4.4
2019-04-03T20:48:46.400Z,4.6
2019-04-03T20:50:00.123Z,4.4
2019-04-03T20:51:14.861Z,4.7
2019-04-03T20:52:28.648Z,4.1
2019-04-03T20:53:42.397Z,4.3
2019-04-03T20:54:57.120Z,4.4
2019-04-03T20:56:10.858Z,5
2019-04-03T20:57:24.584Z,4.8
2019-04-03T20:58:40.666Z,5
2019-04-03T21:00:00.443Z,5.1
2019-04-03T21:01:07.724Z,4.9
2019-04-03T21:02:21.512Z,5.2
2019-04-03T21:03:35.195Z,5.6
2019-04-03T21:04:48.919Z,5.2
2019-04-03T21:06:02.685Z,5
2019-04-03T21:07:16.412Z,5.5
2019-04-03T21:08:31.619Z,4.8
2019-04-03T21:09:44.836Z,5
2019-04-03T21:11:01.708Z,5.3
